sensor_id;sensor_type;location;lat;lon;timestamp;pressure;altitude;pressure_sealevel;temperature
15709;BMP180;7954;51.914;8.420;2023-01-01T00:00:04;99624.09;;;22.40
15709;BMP180;7954;51.914;8.420;2023-01-01T00:02:34;99630.06;;;22.32
15709;BMP180;7954;51.914;8.420;2023-01-01T00:05:03;99645.00;;;22.43
15709;BMP180;7954;51.914;8.420;2023-01-01T00:07:31;99635.72;;;22.36
15709;BMP180;7954;51.914;8.420;2023-01-01T00:09:59;99637.28;;;22.43
15709;BMP180;7954;51.914;8.420;2023-01-01T00:12:44;99638.00;;;22.42
15709;BMP180;7954;51.914;8.420;2023-01-01T00:15:12;99633.53;;;22.48
15709;BMP180;7954;51.914;8.420;2023-01-01T00:17:41;99634.34;;;22.55
15709;BMP180;7954;51.914;8.420;2023-01-01T00:20:10;99640.44;;;22.64
15709;BMP180;7954;51.914;8.420;2023-01-01T00:22:38;99646.03;;;22.60
15709;BMP180;7954;51.914;8.420;2023-01-01T00:25:20;99640.00;;;22.60
15709;BMP180;7954;51.914;8.420;2023-01-01T00:27:48;99638.06;;;22.65
15709;BMP180;7954;51.914;8.420;2023-01-01T00:30:17;99646.19;;;22.62
15709;BMP180;7954;51.914;8.420;2023-01-01T00:32:47;99658.53;;;22.49
15709;BMP180;7954;51.914;8.420;2023-01-01T00:35:21;99654.97;;;22.40
15709;BMP180;7954;51.914;8.420;2023-01-01T00:37:49;99635.66;;;22.52
15709;BMP180;7954;51.914;8.420;2023-01-01T00:40:17;99649.84;;;22.63
15709;BMP180;7954;51.914;8.420;2023-01-01T00:42:45;99648.16;;;22.56
15709;BMP180;7954;51.914;8.420;2023-01-01T00:45:13;99650.28;;;22.60
15709;BMP180;7954;51.914;8.420;2023-01-01T00:47:48;99651.84;;;22.66
15709;BMP180;7954;51.914;8.420;2023-01-01T00:50:16;99643.69;;;22.70
15709;BMP180;7954;51.914;8.420;2023-01-01T00:52:45;99647.41;;;22.80
15709;BMP180;7954;51.914;8.420;2023-01-01T00:55:14;99648.47;;;22.82
15709;BMP180;7954;51.914;8.420;2023-01-01T00:57:42;99656.19;;;22.82
15709;BMP180;7954;51.914;8.420;2023-01-01T01:00:13;99649.69;;;22.62
15709;BMP180;7954;51.914;8.420;2023-01-01T01:02:41;99656.94;;;22.81
15709;BMP180;7954;51.914;8.420;2023-01-01T01:05:11;99649.81;;;22.79
15709;BMP180;7954;51.914;8.420;2023-01-01T01:07:39;99654.06;;;22.78
15709;BMP180;7954;51.914;8.420;2023-01-01T01:10:08;99649.75;;;22.70
15709;BMP180;7954;51.914;8.420;2023-01-01T01:12:37;99650.06;;;22.73
15709;BMP180;7954;51.914;8.420;2023-01-01T01:15:06;99663.25;;;22.76
15709;BMP180;7954;51.914;8.420;2023-01-01T01:17:34;99643.75;;;22.78
15709;BMP180;7954;51.914;8.420;2023-01-01T01:20:03;99642.56;;;22.60
15709;BMP180;7954;51.914;8.420;2023-01-01T01:22:34;99644.78;;;22.72
15709;BMP180;7954;51.914;8.420;2023-01-01T01:25:04;99660.81;;;22.54
15709;BMP180;7954;51.914;8.420;2023-01-01T01:27:32;99643.38;;;22.67
15709;BMP180;7954;51.914;8.420;2023-01-01T01:30:00;99654.84;;;22.62
15709;BMP180;7954;51.914;8.420;2023-01-01T01:32:28;99670.13;;;22.61
15709;BMP180;7954;51.914;8.420;2023-01-01T01:34:55;99674.50;;;22.62
15709;BMP180;7954;51.914;8.420;2023-01-01T01:37:24;99666.94;;;22.78
15709;BMP180;7954;51.914;8.420;2023-01-01T01:39:53;99676.78;;;22.59
15709;BMP180;7954;51.914;8.420;2023-01-01T01:42:21;99679.50;;;22.75
15709;BMP180;7954;51.914;8.420;2023-01-01T01:44:55;99691.53;;;22.68
15709;BMP180;7954;51.914;8.420;2023-01-01T01:47:27;99680.16;;;22.66
15709;BMP180;7954;51.914;8.420;2023-01-01T01:50:00;99667.06;;;22.56
15709;BMP180;7954;51.914;8.420;2023-01-01T01:52:33;99678.09;;;22.55
15709;BMP180;7954;51.914;8.420;2023-01-01T01:55:07;99689.31;;;22.56
15709;BMP180;7954;51.914;8.420;2023-01-01T01:57:36;99680.66;;;22.55
15709;BMP180;7954;51.914;8.420;2023-01-01T02:00:06;99682.66;;;22.58
15709;BMP180;7954;51.914;8.420;2023-01-01T02:02:41;99697.03;;;22.56
15709;BMP180;7954;51.914;8.420;2023-01-01T02:05:10;99686.91;;;22.57
15709;BMP180;7954;51.914;8.420;2023-01-01T02:07:41;99696.19;;;22.63
15709;BMP180;7954;51.914;8.420;2023-01-01T02:10:11;99686.25;;;22.51
15709;BMP180;7954;51.914;8.420;2023-01-01T02:12:39;99691.00;;;22.40
15709;BMP180;7954;51.914;8.420;2023-01-01T02:15:08;99703.69;;;22.54
15709;BMP180;7954;51.914;8.420;2023-01-01T02:17:40;99688.81;;;22.51
15709;BMP180;7954;51.914;8.420;2023-01-01T02:20:23;99680.53;;;22.38
15709;BMP180;7954;51.914;8.420;2023-01-01T02:23:08;99696.22;;;22.33
15709;BMP180;7954;51.914;8.420;2023-01-01T02:25:48;99685.44;;;22.28
15709;BMP180;7954;51.914;8.420;2023-01-01T02:28:35;99698.59;;;22.47
15709;BMP180;7954;51.914;8.420;2023-01-01T02:31:05;99703.44;;;22.28
15709;BMP180;7954;51.914;8.420;2023-01-01T02:33:34;99695.03;;;22.22
15709;BMP180;7954;51.914;8.420;2023-01-01T02:36:05;99695.03;;;22.22
15709;BMP180;7954;51.914;8.420;2023-01-01T02:38:36;99703.81;;;22.24
15709;BMP180;7954;51.914;8.420;2023-01-01T02:41:07;99699.44;;;22.39
15709;BMP180;7954;51.914;8.420;2023-01-01T02:43:40;99707.34;;;22.40
15709;BMP180;7954;51.914;8.420;2023-01-01T02:46:10;99704.91;;;22.42
15709;BMP180;7954;51.914;8.420;2023-01-01T02:48:40;99701.78;;;22.29
15709;BMP180;7954;51.914;8.420;2023-01-01T02:51:15;99705.69;;;22.41
15709;BMP180;7954;51.914;8.420;2023-01-01T02:53:48;99712.75;;;22.35
15709;BMP180;7954;51.914;8.420;2023-01-01T02:56:26;99707.16;;;22.39
15709;BMP180;7954;51.914;8.420;2023-01-01T02:59:16;99688.75;;;22.27
15709;BMP180;7954;51.914;8.420;2023-01-01T03:02:09;99694.88;;;22.21
15709;BMP180;7954;51.914;8.420;2023-01-01T03:04:48;99705.53;;;22.17
15709;BMP180;7954;51.914;8.420;2023-01-01T03:07:25;99713.25;;;22.17
15709;BMP180;7954;51.914;8.420;2023-01-01T03:09:58;99700.09;;;22.14
15709;BMP180;7954;51.914;8.420;2023-01-01T03:12:30;99696.34;;;22.19
15709;BMP180;7954;51.914;8.420;2023-01-01T03:15:13;99701.81;;;22.22
15709;BMP180;7954;51.914;8.420;2023-01-01T03:17:46;99692.69;;;22.17
15709;BMP180;7954;51.914;8.420;2023-01-01T03:20:26;99690.63;;;22.06
15709;BMP180;7954;51.914;8.420;2023-01-01T03:22:57;99694.50;;;22.18
15709;BMP180;7954;51.914;8.420;2023-01-01T03:25:31;99716.78;;;22.17
15709;BMP180;7954;51.914;8.420;2023-01-01T03:28:03;99722.81;;;22.18
15709;BMP180;7954;51.914;8.420;2023-01-01T03:30:34;99708.84;;;22.00
15709;BMP180;7954;51.914;8.420;2023-01-01T03:33:06;99707.22;;;22.01
15709;BMP180;7954;51.914;8.420;2023-01-01T03:35:37;99730.47;;;21.87
15709;BMP180;7954;51.914;8.420;2023-01-01T03:38:10;99716.56;;;22.00
15709;BMP180;7954;51.914;8.420;2023-01-01T03:40:41;99724.63;;;22.03
15709;BMP180;7954;51.914;8.420;2023-01-01T03:43:18;99727.00;;;21.87
15709;BMP180;7954;51.914;8.420;2023-01-01T03:45:50;99720.97;;;22.01
15709;BMP180;7954;51.914;8.420;2023-01-01T03:48:19;99716.09;;;21.96
15709;BMP180;7954;51.914;8.420;2023-01-01T03:50:56;99730.78;;;22.12
15709;BMP180;7954;51.914;8.420;2023-01-01T03:53:32;99720.06;;;22.01
15709;BMP180;7954;51.914;8.420;2023-01-01T03:56:09;99739.38;;;21.98
15709;BMP180;7954;51.914;8.420;2023-01-01T03:58:44;99731.91;;;21.92
15709;BMP180;7954;51.914;8.420;2023-01-01T04:01:19;99716.47;;;21.92
15709;BMP180;7954;51.914;8.420;2023-01-01T04:03:49;99712.09;;;21.91
15709;BMP180;7954;51.914;8.420;2023-01-01T04:06:18;99722.19;;;21.90
15709;BMP180;7954;51.914;8.420;2023-01-01T04:08:48;99715.13;;;21.80
15709;BMP180;7954;51.914;8.420;2023-01-01T04:11:20;99711.84;;;21.81
15709;BMP180;7954;51.914;8.420;2023-01-01T04:14:07;99712.50;;;21.65
15709;BMP180;7954;51.914;8.420;2023-01-01T04:16:37;99704.19;;;21.74
15709;BMP180;7954;51.914;8.420;2023-01-01T04:19:06;99727.31;;;21.74
15709;BMP180;7954;51.914;8.420;2023-01-01T04:21:33;99716.56;;;21.85
15709;BMP180;7954;51.914;8.420;2023-01-01T04:24:02;99719.91;;;21.77
15709;BMP180;7954;51.914;8.420;2023-01-01T04:26:30;99740.69;;;21.79
15709;BMP180;7954;51.914;8.420;2023-01-01T04:28:58;99723.34;;;21.85
15709;BMP180;7954;51.914;8.420;2023-01-01T04:31:26;99735.28;;;21.84
15709;BMP180;7954;51.914;8.420;2023-01-01T04:33:56;99748.59;;;21.73
15709;BMP180;7954;51.914;8.420;2023-01-01T04:36:24;99761.63;;;21.75
15709;BMP180;7954;51.914;8.420;2023-01-01T04:38:52;99758.25;;;21.83
15709;BMP180;7954;51.914;8.420;2023-01-01T04:41:20;99759.91;;;21.82
15709;BMP180;7954;51.914;8.420;2023-01-01T04:43:48;99756.72;;;21.69
15709;BMP180;7954;51.914;8.420;2023-01-01T04:46:18;99762.56;;;21.75
15709;BMP180;7954;51.914;8.420;2023-01-01T04:48:46;99754.56;;;21.65
15709;BMP180;7954;51.914;8.420;2023-01-01T04:51:18;99754.69;;;21.74
15709;BMP180;7954;51.914;8.420;2023-01-01T04:53:47;99759.00;;;21.82
15709;BMP180;7954;51.914;8.420;2023-01-01T04:56:17;99763.00;;;21.87
15709;BMP180;7954;51.914;8.420;2023-01-01T04:58:46;99765.44;;;21.78
15709;BMP180;7954;51.914;8.420;2023-01-01T05:01:17;99783.00;;;21.67
15709;BMP180;7954;51.914;8.420;2023-01-01T05:03:46;99761.63;;;21.75
15709;BMP180;7954;51.914;8.420;2023-01-01T05:06:16;99790.47;;;21.72
15709;BMP180;7954;51.914;8.420;2023-01-01T05:08:45;99790.19;;;21.62
15709;BMP180;7954;51.914;8.420;2023-01-01T05:11:15;99784.38;;;21.49
15709;BMP180;7954;51.914;8.420;2023-01-01T05:13:46;99784.94;;;21.54
15709;BMP180;7954;51.914;8.420;2023-01-01T05:16:15;99802.16;;;21.55
15709;BMP180;7954;51.914;8.420;2023-01-01T05:18:44;99791.69;;;21.83
15709;BMP180;7954;51.914;8.420;2023-01-01T05:21:13;99811.56;;;21.77
15709;BMP180;7954;51.914;8.420;2023-01-01T05:23:43;99791.91;;;21.77
15709;BMP180;7954;51.914;8.420;2023-01-01T05:26:13;99801.53;;;21.71
15709;BMP180;7954;51.914;8.420;2023-01-01T05:28:42;99823.22;;;21.66
15709;BMP180;7954;51.914;8.420;2023-01-01T05:31:11;99810.13;;;21.72
15709;BMP180;7954;51.914;8.420;2023-01-01T05:33:40;99821.38;;;21.65
15709;BMP180;7954;51.914;8.420;2023-01-01T05:36:13;99799.31;;;21.67
15709;BMP180;7954;51.914;8.420;2023-01-01T05:38:42;99800.25;;;21.68
15709;BMP180;7954;51.914;8.420;2023-01-01T05:41:13;99813.63;;;21.43
15709;BMP180;7954;51.914;8.420;2023-01-01T05:43:41;99826.81;;;21.53
15709;BMP180;7954;51.914;8.420;2023-01-01T05:46:11;99829.66;;;21.63
15709;BMP180;7954;51.914;8.420;2023-01-01T05:48:39;99837.56;;;21.57
15709;BMP180;7954;51.914;8.420;2023-01-01T05:51:09;99852.09;;;21.50
15709;BMP180;7954;51.914;8.420;2023-01-01T05:53:37;99825.13;;;21.53
15709;BMP180;7954;51.914;8.420;2023-01-01T05:56:07;99834.16;;;21.43
15709;BMP180;7954;51.914;8.420;2023-01-01T05:58:35;99830.97;;;21.59
15709;BMP180;7954;51.914;8.420;2023-01-01T06:01:08;99833.66;;;21.68
15709;BMP180;7954;51.914;8.420;2023-01-01T06:03:36;99821.50;;;21.44
15709;BMP180;7954;51.914;8.420;2023-01-01T06:06:06;99839.06;;;21.48
15709;BMP180;7954;51.914;8.420;2023-01-01T06:08:34;99836.44;;;21.62
15709;BMP180;7954;51.914;8.420;2023-01-01T06:11:04;99846.69;;;21.69
15709;BMP180;7954;51.914;8.420;2023-01-01T06:13:34;99846.28;;;21.73
15709;BMP180;7954;51.914;8.420;2023-01-01T06:16:03;99836.84;;;21.58
15709;BMP180;7954;51.914;8.420;2023-01-01T06:18:33;99840.91;;;21.49
15709;BMP180;7954;51.914;8.420;2023-01-01T06:21:05;99852.00;;;21.34
15709;BMP180;7954;51.914;8.420;2023-01-01T06:23:33;99842.72;;;21.21
15709;BMP180;7954;51.914;8.420;2023-01-01T06:26:06;99842.88;;;21.30
15709;BMP180;7954;51.914;8.420;2023-01-01T06:28:36;99849.44;;;21.34
15709;BMP180;7954;51.914;8.420;2023-01-01T06:31:06;99860.88;;;21.23
15709;BMP180;7954;51.914;8.420;2023-01-01T06:33:36;99861.81;;;21.16
15709;BMP180;7954;51.914;8.420;2023-01-01T06:36:06;99886.22;;;21.20
15709;BMP180;7954;51.914;8.420;2023-01-01T06:38:36;99888.06;;;21.14
15709;BMP180;7954;51.914;8.420;2023-01-01T06:41:06;99894.69;;;21.12
15709;BMP180;7954;51.914;8.420;2023-01-01T06:43:36;99888.78;;;21.13
15709;BMP180;7954;51.914;8.420;2023-01-01T06:46:06;99890.81;;;21.15
15709;BMP180;7954;51.914;8.420;2023-01-01T06:48:35;99887.13;;;21.20
15709;BMP180;7954;51.914;8.420;2023-01-01T06:51:05;99893.91;;;21.27
15709;BMP180;7954;51.914;8.420;2023-01-01T06:53:33;99893.19;;;21.21
15709;BMP180;7954;51.914;8.420;2023-01-01T06:56:01;99897.53;;;21.29
15709;BMP180;7954;51.914;8.420;2023-01-01T06:58:30;99883.06;;;21.29
15709;BMP180;7954;51.914;8.420;2023-01-01T07:01:08;99897.59;;;21.15
15709;BMP180;7954;51.914;8.420;2023-01-01T07:03:37;99922.16;;;21.20
15709;BMP180;7954;51.914;8.420;2023-01-01T07:06:06;99916.09;;;21.26
15709;BMP180;7954;51.914;8.420;2023-01-01T07:08:35;99921.38;;;21.34
15709;BMP180;7954;51.914;8.420;2023-01-01T07:11:03;99927.38;;;21.06
15709;BMP180;7954;51.914;8.420;2023-01-01T07:13:31;99909.38;;;21.06
15709;BMP180;7954;51.914;8.420;2023-01-01T07:15:59;99932.16;;;20.96
15709;BMP180;7954;51.914;8.420;2023-01-01T07:18:37;99946.28;;;20.99
15709;BMP180;7954;51.914;8.420;2023-01-01T07:21:22;99955.66;;;20.85
15709;BMP180;7954;51.914;8.420;2023-01-01T07:23:55;99955.22;;;21.03
15709;BMP180;7954;51.914;8.420;2023-01-01T07:26:23;99935.91;;;21.27
15709;BMP180;7954;51.914;8.420;2023-01-01T07:28:52;99941.59;;;21.25
15709;BMP180;7954;51.914;8.420;2023-01-01T07:31:20;99964.72;;;21.25
15709;BMP180;7954;51.914;8.420;2023-01-01T07:33:49;99974.88;;;21.09
15709;BMP180;7954;51.914;8.420;2023-01-01T07:36:18;99958.53;;;21.09
15709;BMP180;7954;51.914;8.420;2023-01-01T07:38:46;99964.94;;;21.12
15709;BMP180;7954;51.914;8.420;2023-01-01T07:41:15;99967.69;;;21.14
15709;BMP180;7954;51.914;8.420;2023-01-01T07:43:43;99964.72;;;21.18
15709;BMP180;7954;51.914;8.420;2023-01-01T07:46:13;99976.13;;;21.13
15709;BMP180;7954;51.914;8.420;2023-01-01T07:48:42;99966.19;;;21.23
15709;BMP180;7954;51.914;8.420;2023-01-01T07:51:12;99972.41;;;21.32
15709;BMP180;7954;51.914;8.420;2023-01-01T07:53:40;99976.63;;;21.31
15709;BMP180;7954;51.914;8.420;2023-01-01T07:56:08;99963.22;;;21.33
15709;BMP180;7954;51.914;8.420;2023-01-01T07:58:37;99982.38;;;21.08
15709;BMP180;7954;51.914;8.420;2023-01-01T08:01:08;99983.47;;;21.03
15709;BMP180;7954;51.914;8.420;2023-01-01T08:03:37;99993.34;;;21.14
15709;BMP180;7954;51.914;8.420;2023-01-01T08:06:07;99988.94;;;21.20
15709;BMP180;7954;51.914;8.420;2023-01-01T08:08:37;99999.25;;;21.06
15709;BMP180;7954;51.914;8.420;2023-01-01T08:11:05;99991.38;;;20.90
15709;BMP180;7954;51.914;8.420;2023-01-01T08:13:32;100000.00;;;21.05
15709;BMP180;7954;51.914;8.420;2023-01-01T08:16:00;100013.75;;;20.91
15709;BMP180;7954;51.914;8.420;2023-01-01T08:18:29;100018.91;;;20.91
15709;BMP180;7954;51.914;8.420;2023-01-01T08:20:57;100011.38;;;21.07
15709;BMP180;7954;51.914;8.420;2023-01-01T08:23:25;100023.47;;;20.94
15709;BMP180;7954;51.914;8.420;2023-01-01T08:25:59;100027.16;;;20.96
15709;BMP180;7954;51.914;8.420;2023-01-01T08:28:27;100034.81;;;20.68
15709;BMP180;7954;51.914;8.420;2023-01-01T08:30:55;100052.44;;;20.79
15709;BMP180;7954;51.914;8.420;2023-01-01T08:33:23;100038.47;;;20.63
15709;BMP180;7954;51.914;8.420;2023-01-01T08:35:51;100057.19;;;20.62
15709;BMP180;7954;51.914;8.420;2023-01-01T08:38:21;100060.47;;;20.68
15709;BMP180;7954;51.914;8.420;2023-01-01T08:40:49;100072.97;;;20.72
15709;BMP180;7954;51.914;8.420;2023-01-01T08:43:19;100090.53;;;20.69
15709;BMP180;7954;51.914;8.420;2023-01-01T08:45:47;100085.81;;;20.72
15709;BMP180;7954;51.914;8.420;2023-01-01T08:48:14;100099.16;;;20.63
15709;BMP180;7954;51.914;8.420;2023-01-01T08:50:43;100102.25;;;20.46
15709;BMP180;7954;51.914;8.420;2023-01-01T08:53:10;100124.78;;;20.35
15709;BMP180;7954;51.914;8.420;2023-01-01T08:55:39;100121.63;;;20.30
15709;BMP180;7954;51.914;8.420;2023-01-01T08:58:07;100112.41;;;20.18
15709;BMP180;7954;51.914;8.420;2023-01-01T09:00:36;100101.97;;;20.17
15709;BMP180;7954;51.914;8.420;2023-01-01T09:03:04;100112.50;;;20.32
15709;BMP180;7954;51.914;8.420;2023-01-01T09:05:33;100129.91;;;20.42
15709;BMP180;7954;51.914;8.420;2023-01-01T09:08:00;100133.72;;;20.38
15709;BMP180;7954;51.914;8.420;2023-01-01T09:10:28;100127.19;;;20.47
15709;BMP180;7954;51.914;8.420;2023-01-01T09:12:56;100136.34;;;20.45
15709;BMP180;7954;51.914;8.420;2023-01-01T09:15:24;100145.66;;;20.38
15709;BMP180;7954;51.914;8.420;2023-01-01T09:17:54;100142.50;;;20.33
15709;BMP180;7954;51.914;8.420;2023-01-01T09:20:22;100148.41;;;20.39
15709;BMP180;7954;51.914;8.420;2023-01-01T09:22:50;100163.66;;;20.45
15709;BMP180;7954;51.914;8.420;2023-01-01T09:25:18;100172.50;;;20.20
15709;BMP180;7954;51.914;8.420;2023-01-01T09:27:46;100188.78;;;19.88
15709;BMP180;7954;51.914;8.420;2023-01-01T09:30:14;100188.31;;;19.97
15709;BMP180;7954;51.914;8.420;2023-01-01T09:32:42;100192.03;;;20.06
15709;BMP180;7954;51.914;8.420;2023-01-01T09:35:12;100188.50;;;19.92
15709;BMP180;7954;51.914;8.420;2023-01-01T09:37:40;100175.22;;;20.08
15709;BMP180;7954;51.914;8.420;2023-01-01T09:40:22;100200.00;;;20.28
15709;BMP180;7954;51.914;8.420;2023-01-01T09:42:58;100190.56;;;20.48
15709;BMP180;7954;51.914;8.420;2023-01-01T09:45:34;100198.47;;;20.50
15709;BMP180;7954;51.914;8.420;2023-01-01T09:48:06;100214.78;;;20.50
15709;BMP180;7954;51.914;8.420;2023-01-01T09:50:40;100220.63;;;20.42
15709;BMP180;7954;51.914;8.420;2023-01-01T09:53:12;100206.66;;;20.40
15709;BMP180;7954;51.914;8.420;2023-01-01T09:55:45;100227.91;;;20.32
15709;BMP180;7954;51.914;8.420;2023-01-01T09:58:14;100240.06;;;20.47
15709;BMP180;7954;51.914;8.420;2023-01-01T10:00:44;100250.94;;;20.25
15709;BMP180;7954;51.914;8.420;2023-01-01T10:03:24;100257.94;;;19.54
15709;BMP180;7954;51.914;8.420;2023-01-01T10:06:00;100253.03;;;19.05
15709;BMP180;7954;51.914;8.420;2023-01-01T10:08:39;100257.81;;;18.77
15709;BMP180;7954;51.914;8.420;2023-01-01T10:11:14;100242.66;;;18.59
15709;BMP180;7954;51.914;8.420;2023-01-01T10:13:45;100247.38;;;18.44
15709;BMP180;7954;51.914;8.420;2023-01-01T10:16:17;100258.25;;;18.36
15709;BMP180;7954;51.914;8.420;2023-01-01T10:18:54;100239.69;;;18.44
15709;BMP180;7954;51.914;8.420;2023-01-01T10:21:27;100246.13;;;18.47
15709;BMP180;7954;51.914;8.420;2023-01-01T10:24:00;100247.66;;;18.52
15709;BMP180;7954;51.914;8.420;2023-01-01T10:26:31;100236.09;;;18.49
15709;BMP180;7954;51.914;8.420;2023-01-01T10:29:05;100243.50;;;18.53
15709;BMP180;7954;51.914;8.420;2023-01-01T10:31:40;100238.34;;;18.65
15709;BMP180;7954;51.914;8.420;2023-01-01T10:34:16;100235.00;;;18.78
15709;BMP180;7954;51.914;8.420;2023-01-01T10:36:48;100237.13;;;18.88
15709;BMP180;7954;51.914;8.420;2023-01-01T10:39:18;100238.19;;;19.02
15709;BMP180;7954;51.914;8.420;2023-01-01T10:41:47;100224.09;;;19.18
15709;BMP180;7954;51.914;8.420;2023-01-01T10:44:27;100218.91;;;19.31
15709;BMP180;7954;51.914;8.420;2023-01-01T10:46:57;100220.56;;;19.49
15709;BMP180;7954;51.914;8.420;2023-01-01T10:49:25;100210.25;;;19.69
15709;BMP180;7954;51.914;8.420;2023-01-01T10:51:54;100230.13;;;19.84
15709;BMP180;7954;51.914;8.420;2023-01-01T10:54:31;100225.88;;;19.77
15709;BMP180;7954;51.914;8.420;2023-01-01T10:57:12;100245.59;;;19.71
15709;BMP180;7954;51.914;8.420;2023-01-01T10:59:42;100238.44;;;19.69
15709;BMP180;7954;51.914;8.420;2023-01-01T11:02:20;100245.16;;;19.61
15709;BMP180;7954;51.914;8.420;2023-01-01T11:04:50;100232.53;;;19.63
15709;BMP180;7954;51.914;8.420;2023-01-01T11:07:27;100221.81;;;19.72
15709;BMP180;7954;51.914;8.420;2023-01-01T11:10:00;100198.31;;;19.89
15709;BMP180;7954;51.914;8.420;2023-01-01T11:12:33;100195.28;;;19.98
15709;BMP180;7954;51.914;8.420;2023-01-01T11:15:25;100211.66;;;20.12
15709;BMP180;7954;51.914;8.420;2023-01-01T11:18:03;100200.19;;;20.23
15709;BMP180;7954;51.914;8.420;2023-01-01T11:20:32;100211.53;;;20.25
15709;BMP180;7954;51.914;8.420;2023-01-01T11:23:17;100203.63;;;20.16
15709;BMP180;7954;51.914;8.420;2023-01-01T11:25:59;100195.19;;;20.17
15709;BMP180;7954;51.914;8.420;2023-01-01T11:28:28;100195.19;;;20.17
15709;BMP180;7954;51.914;8.420;2023-01-01T11:31:12;100192.31;;;20.28
15709;BMP180;7954;51.914;8.420;2023-01-01T11:33:46;100211.44;;;20.37
15709;BMP180;7954;51.914;8.420;2023-01-01T11:36:22;100205.00;;;20.41
15709;BMP180;7954;51.914;8.420;2023-01-01T11:39:04;100210.50;;;20.37
15709;BMP180;7954;51.914;8.420;2023-01-01T11:41:41;100217.66;;;20.39
15709;BMP180;7954;51.914;8.420;2023-01-01T11:44:11;100223.91;;;20.41
15709;BMP180;7954;51.914;8.420;2023-01-01T11:46:44;100211.81;;;20.40
15709;BMP180;7954;51.914;8.420;2023-01-01T11:49:20;100220.44;;;20.48
15709;BMP180;7954;51.914;8.420;2023-01-01T11:51:50;100233.63;;;20.44
15709;BMP180;7954;51.914;8.420;2023-01-01T11:54:29;100237.94;;;20.31
15709;BMP180;7954;51.914;8.420;2023-01-01T11:57:03;100238.88;;;20.31
15709;BMP180;7954;51.914;8.420;2023-01-01T11:59:42;100234.84;;;20.33
15709;BMP180;7954;51.914;8.420;2023-01-01T12:02:14;100237.59;;;20.28
15709;BMP180;7954;51.914;8.420;2023-01-01T12:04:49;100238.66;;;20.30
15709;BMP180;7954;51.914;8.420;2023-01-01T12:07:22;100247.41;;;20.18
15709;BMP180;7954;51.914;8.420;2023-01-01T12:09:56;100248.84;;;20.16
15709;BMP180;7954;51.914;8.420;2023-01-01T12:12:31;100251.44;;;20.16
15709;BMP180;7954;51.914;8.420;2023-01-01T12:15:04;100252.56;;;20.18
15709;BMP180;7954;51.914;8.420;2023-01-01T12:17:37;100260.38;;;20.12
15709;BMP180;7954;51.914;8.420;2023-01-01T12:20:15;100248.78;;;20.02
15709;BMP180;7954;51.914;8.420;2023-01-01T12:22:47;100250.28;;;20.07
15709;BMP180;7954;51.914;8.420;2023-01-01T12:25:18;100256.38;;;20.14
15709;BMP180;7954;51.914;8.420;2023-01-01T12:27:56;100258.59;;;20.18
15709;BMP180;7954;51.914;8.420;2023-01-01T12:30:36;100251.31;;;20.28
15709;BMP180;7954;51.914;8.420;2023-01-01T12:33:15;100262.16;;;20.33
15709;BMP180;7954;51.914;8.420;2023-01-01T12:35:57;100251.94;;;20.40
15709;BMP180;7954;51.914;8.420;2023-01-01T12:41:39;100254.81;;;20.36
15709;BMP180;7954;51.914;8.420;2023-01-01T12:44:18;100223.56;;;20.45
15709;BMP180;7954;51.914;8.420;2023-01-01T12:46:53;100229.81;;;20.47
15709;BMP180;7954;51.914;8.420;2023-01-01T12:49:33;100215.69;;;20.44
15709;BMP180;7954;51.914;8.420;2023-01-01T12:52:12;100222.69;;;20.65
15709;BMP180;7954;51.914;8.420;2023-01-01T12:54:58;100215.56;;;20.70
15709;BMP180;7954;51.914;8.420;2023-01-01T12:57:35;100192.28;;;20.68
15709;BMP180;7954;51.914;8.420;2023-01-01T13:00:11;100198.22;;;20.95
15709;BMP180;7954;51.914;8.420;2023-01-01T13:02:50;100203.56;;;20.90
15709;BMP180;7954;51.914;8.420;2023-01-01T13:05:22;100204.66;;;20.99
15709;BMP180;7954;51.914;8.420;2023-01-01T13:07:54;100208.34;;;21.08
15709;BMP180;7954;51.914;8.420;2023-01-01T13:10:26;100211.66;;;21.07
15709;BMP180;7954;51.914;8.420;2023-01-01T13:12:57;100215.16;;;21.21
15709;BMP180;7954;51.914;8.420;2023-01-01T13:15:44;100220.84;;;21.12
15709;BMP180;7954;51.914;8.420;2023-01-01T13:18:25;100206.53;;;21.14
15709;BMP180;7954;51.914;8.420;2023-01-01T13:20:56;100213.31;;;21.13
15709;BMP180;7954;51.914;8.420;2023-01-01T13:23:45;100212.22;;;21.25
15709;BMP180;7954;51.914;8.420;2023-01-01T13:26:36;100214.06;;;21.33
15709;BMP180;7954;51.914;8.420;2023-01-01T13:29:41;100211.66;;;21.28
15709;BMP180;7954;51.914;8.420;2023-01-01T13:32:11;100208.00;;;21.19
15709;BMP180;7954;51.914;8.420;2023-01-01T13:37:44;100221.94;;;21.14
15709;BMP180;7954;51.914;8.420;2023-01-01T13:40:46;100228.00;;;21.28
15709;BMP180;7954;51.914;8.420;2023-01-01T13:43:24;100231.69;;;21.23
15709;BMP180;7954;51.914;8.420;2023-01-01T13:45:56;100255.31;;;21.07
15709;BMP180;7954;51.914;8.420;2023-01-01T13:55:14;100242.31;;;21.19
15709;BMP180;7954;51.914;8.420;2023-01-01T14:03:45;100257.50;;;21.04
15709;BMP180;7954;51.914;8.420;2023-01-01T14:06:15;100261.56;;;21.02
15709;BMP180;7954;51.914;8.420;2023-01-01T14:08:59;100243.03;;;21.11
15709;BMP180;7954;51.914;8.420;2023-01-01T14:11:32;100259.56;;;21.13
15709;BMP180;7954;51.914;8.420;2023-01-01T14:14:00;100255.31;;;21.07
15709;BMP180;7954;51.914;8.420;2023-01-01T14:16:28;100271.25;;;20.97
15709;BMP180;7954;51.914;8.420;2023-01-01T14:18:59;100272.69;;;20.95
15709;BMP180;7954;51.914;8.420;2023-01-01T14:21:31;100271.97;;;20.89
15709;BMP180;7954;51.914;8.420;2023-01-01T14:24:01;100279.13;;;20.99
15709;BMP180;7954;51.914;8.420;2023-01-01T14:26:32;100274.38;;;21.02
15709;BMP180;7954;51.914;8.420;2023-01-01T14:29:05;100264.31;;;21.03
15709;BMP180;7954;51.914;8.420;2023-01-01T14:31:36;100263.53;;;20.97
15709;BMP180;7954;51.914;8.420;2023-01-01T14:34:25;100269.94;;;20.94
15709;BMP180;7954;51.914;8.420;2023-01-01T14:36:55;100256.03;;;20.92
15709;BMP180;7954;51.914;8.420;2023-01-01T14:39:24;100259.13;;;20.89
15709;BMP180;7954;51.914;8.420;2023-01-01T14:41:54;100257.66;;;20.84
15709;BMP180;7954;51.914;8.420;2023-01-01T14:44:29;100265.72;;;20.87
15709;BMP180;7954;51.914;8.420;2023-01-01T14:46:59;100261.34;;;20.93
15709;BMP180;7954;51.914;8.420;2023-01-01T14:49:32;100262.78;;;20.91
15709;BMP180;7954;51.914;8.420;2023-01-01T14:52:04;100256.34;;;20.88
15709;BMP180;7954;51.914;8.420;2023-01-01T14:54:37;100278.56;;;20.87
15709;BMP180;7954;51.914;8.420;2023-01-01T14:57:10;100261.50;;;20.81
15709;BMP180;7954;51.914;8.420;2023-01-01T14:59:44;100277.03;;;20.75
15709;BMP180;7954;51.914;8.420;2023-01-01T15:02:15;100287.63;;;20.71